Kagoshima, Japan

6:12 AM JST on August 24, 2016 (GMT +0900)
Kagoshima | | Change Station

Elev 902 ft 31.80 °N, 130.72 °E | Updated 12 minutes ago

Patches of Fog
Patches Fog
72 °F
Feels Like 72 °F
N
4
Wind Variable Wind from NNW

Today
High -- | Low -- °F
--% Chance of Precip.
Yesterday
High -- | Low -- °F
Precip. -- in
Pressure 29.68 in
Visibility 6.2 miles
Clouds Few 2000 ft
Dew Point 70 °F
Humidity 94%
Rainfall 0.00 in
Snow Depth Not available.
5:48 AM 6:51 PM
Waning Gibbous, 64% visible
METAR RJFK 232100Z 34003KT 300V110 9999 BCFG FEW020 22/21 Q1005 RMK 1CU020 A2969 FG N-NE
Pressure 29.68 in
Visibility 6.2 miles
Clouds Few 2000 ft
Dew Point 70 °F
Humidity 94%
Rainfall 0.00 in
Snow Depth Not available.
5:48 AM 6:51 PM
Waning Gibbous, 64% visible
METAR RJFK 232100Z 34003KT 300V110 9999 BCFG FEW020 22/21 Q1005 RMK 1CU020 A2969 FG N-NE

10-Day Weather Forecast

No radar image for this location.
×

Almanac

Astronomy

Aug. 24, 2016 Rise Set
Actual Time
Civil Twilight
Nautical Twilight
Astronomical Twilight
Moon
Length of Visible Light
Length of Day
Tomorrow will be .
, % of the Moon is Illuminated

Today's Extremes

Country Highs Country Lows

Community

WunderPhotos

Upload Photos

1,934,456 photos uploaded!

WunderBlog® & News

Nearby

Air Quality

  Air Quality AQ Index Pollutant
Not available.

Snow Depth

Station Depth Elevation

Earthquake Activity

City Distance Mag. Time & Date
Minimum magnitude displayed is 2.5.

Coastal Water Temperatures

Place Temperature

Stations

Nearby Weather Stations

Station Location Temp. Windchill Dew Point Humidity Wind Precip. Elev Updated Type